sensor_id;sensor_type;location;lat;lon;timestamp;P1;durP1;ratioP1;P2;durP2;ratioP2
21843;SDS011;11084;52.482;9.108;2022-08-19T00:01:51;3.83;;;2.40;;
21843;SDS011;11084;52.482;9.108;2022-08-19T00:04:23;6.50;;;2.77;;
21843;SDS011;11084;52.482;9.108;2022-08-19T00:06:53;5.53;;;2.57;;
21843;SDS011;11084;52.482;9.108;2022-08-19T00:09:21;5.87;;;3.00;;
21843;SDS011;11084;52.482;9.108;2022-08-19T00:11:49;6.47;;;3.03;;
21843;SDS011;11084;52.482;9.108;2022-08-19T00:14:17;4.93;;;2.80;;
21843;SDS011;11084;52.482;9.108;2022-08-19T00:16:44;8.50;;;2.90;;
21843;SDS011;11084;52.482;9.108;2022-08-19T00:19:13;6.97;;;3.00;;
21843;SDS011;11084;52.482;9.108;2022-08-19T00:21:40;7.90;;;2.80;;
21843;SDS011;11084;52.482;9.108;2022-08-19T00:24:08;6.17;;;2.60;;
21843;SDS011;11084;52.482;9.108;2022-08-19T00:26:36;7.43;;;2.83;;
21843;SDS011;11084;52.482;9.108;2022-08-19T00:29:04;3.60;;;2.57;;
21843;SDS011;11084;52.482;9.108;2022-08-19T00:31:32;5.23;;;2.53;;
21843;SDS011;11084;52.482;9.108;2022-08-19T00:33:59;5.00;;;2.47;;
21843;SDS011;11084;52.482;9.108;2022-08-19T00:36:25;4.80;;;2.87;;
21843;SDS011;11084;52.482;9.108;2022-08-19T00:38:51;4.67;;;2.33;;
21843;SDS011;11084;52.482;9.108;2022-08-19T00:41:18;4.83;;;2.50;;
21843;SDS011;11084;52.482;9.108;2022-08-19T00:46:30;3.07;;;2.13;;
21843;SDS011;11084;52.482;9.108;2022-08-19T00:48:58;6.60;;;2.50;;
21843;SDS011;11084;52.482;9.108;2022-08-19T00:51:28;3.43;;;2.37;;
21843;SDS011;11084;52.482;9.108;2022-08-19T00:53:57;9.43;;;2.70;;
21843;SDS011;11084;52.482;9.108;2022-08-19T00:56:26;4.67;;;2.57;;
21843;SDS011;11084;52.482;9.108;2022-08-19T00:58:53;4.17;;;2.90;;
21843;SDS011;11084;52.482;9.108;2022-08-19T01:01:21;6.37;;;3.40;;
21843;SDS011;11084;52.482;9.108;2022-08-19T01:03:47;5.13;;;3.20;;
21843;SDS011;11084;52.482;9.108;2022-08-19T01:06:13;9.20;;;3.50;;
21843;SDS011;11084;52.482;9.108;2022-08-19T01:08:40;7.43;;;4.23;;
21843;SDS011;11084;52.482;9.108;2022-08-19T01:11:06;6.83;;;3.63;;
21843;SDS011;11084;52.482;9.108;2022-08-19T01:13:35;10.73;;;4.20;;
21843;SDS011;11084;52.482;9.108;2022-08-19T01:16:06;9.80;;;3.57;;
21843;SDS011;11084;52.482;9.108;2022-08-19T01:18:38;8.53;;;3.83;;
21843;SDS011;11084;52.482;9.108;2022-08-19T01:21:10;8.43;;;4.13;;
21843;SDS011;11084;52.482;9.108;2022-08-19T01:23:51;9.90;;;4.10;;
21843;SDS011;11084;52.482;9.108;2022-08-19T01:26:19;6.53;;;4.07;;
21843;SDS011;11084;52.482;9.108;2022-08-19T01:28:49;6.83;;;4.13;;
21843;SDS011;11084;52.482;9.108;2022-08-19T01:31:19;10.80;;;4.30;;
21843;SDS011;11084;52.482;9.108;2022-08-19T01:33:50;9.67;;;4.57;;
21843;SDS011;11084;52.482;9.108;2022-08-19T01:36:23;5.67;;;4.33;;
21843;SDS011;11084;52.482;9.108;2022-08-19T01:38:52;6.10;;;4.20;;
21843;SDS011;11084;52.482;9.108;2022-08-19T01:41:18;8.70;;;4.60;;
21843;SDS011;11084;52.482;9.108;2022-08-19T01:43:44;9.00;;;4.83;;
21843;SDS011;11084;52.482;9.108;2022-08-19T01:46:11;14.13;;;5.50;;
21843;SDS011;11084;52.482;9.108;2022-08-19T01:48:39;16.10;;;5.67;;
21843;SDS011;11084;52.482;9.108;2022-08-19T01:51:08;10.57;;;5.43;;
21843;SDS011;11084;52.482;9.108;2022-08-19T01:53:36;10.90;;;6.00;;
21843;SDS011;11084;52.482;9.108;2022-08-19T01:56:03;13.57;;;6.93;;
21843;SDS011;11084;52.482;9.108;2022-08-19T01:58:33;17.60;;;6.23;;
21843;SDS011;11084;52.482;9.108;2022-08-19T02:01:07;11.23;;;6.77;;
21843;SDS011;11084;52.482;9.108;2022-08-19T02:03:33;10.73;;;6.53;;
21843;SDS011;11084;52.482;9.108;2022-08-19T02:06:02;16.23;;;7.03;;
21843;SDS011;11084;52.482;9.108;2022-08-19T02:08:30;15.07;;;6.60;;
21843;SDS011;11084;52.482;9.108;2022-08-19T02:10:59;20.30;;;7.60;;
21843;SDS011;11084;52.482;9.108;2022-08-19T02:13:26;13.90;;;7.27;;
21843;SDS011;11084;52.482;9.108;2022-08-19T02:15:52;10.83;;;7.43;;
21843;SDS011;11084;52.482;9.108;2022-08-19T02:18:18;12.27;;;7.33;;
21843;SDS011;11084;52.482;9.108;2022-08-19T02:20:45;13.23;;;7.93;;
21843;SDS011;11084;52.482;9.108;2022-08-19T02:23:14;12.17;;;7.40;;
21843;SDS011;11084;52.482;9.108;2022-08-19T02:25:43;14.30;;;7.93;;
21843;SDS011;11084;52.482;9.108;2022-08-19T02:28:11;16.80;;;8.43;;
21843;SDS011;11084;52.482;9.108;2022-08-19T02:30:38;13.07;;;8.17;;
21843;SDS011;11084;52.482;9.108;2022-08-19T02:33:06;15.13;;;7.20;;
21843;SDS011;11084;52.482;9.108;2022-08-19T02:35:32;11.77;;;7.27;;
21843;SDS011;11084;52.482;9.108;2022-08-19T02:37:58;11.40;;;7.63;;
21843;SDS011;11084;52.482;9.108;2022-08-19T02:40:50;13.63;;;8.13;;
21843;SDS011;11084;52.482;9.108;2022-08-19T02:43:23;13.50;;;6.63;;
21843;SDS011;11084;52.482;9.108;2022-08-19T02:45:54;17.93;;;8.20;;
21843;SDS011;11084;52.482;9.108;2022-08-19T02:48:20;16.03;;;7.90;;
21843;SDS011;11084;52.482;9.108;2022-08-19T02:50:50;17.10;;;7.93;;
21843;SDS011;11084;52.482;9.108;2022-08-19T02:53:24;17.20;;;9.27;;
21843;SDS011;11084;52.482;9.108;2022-08-19T02:55:52;13.97;;;8.27;;
21843;SDS011;11084;52.482;9.108;2022-08-19T02:58:19;19.57;;;8.43;;
21843;SDS011;11084;52.482;9.108;2022-08-19T03:00:51;16.60;;;8.43;;
21843;SDS011;11084;52.482;9.108;2022-08-19T03:03:19;14.67;;;8.37;;
21843;SDS011;11084;52.482;9.108;2022-08-19T03:05:46;16.33;;;8.63;;
21843;SDS011;11084;52.482;9.108;2022-08-19T03:08:12;16.80;;;9.20;;
21843;SDS011;11084;52.482;9.108;2022-08-19T03:10:40;16.90;;;8.60;;
21843;SDS011;11084;52.482;9.108;2022-08-19T03:13:13;22.23;;;9.47;;
21843;SDS011;11084;52.482;9.108;2022-08-19T03:15:42;24.70;;;10.77;;
21843;SDS011;11084;52.482;9.108;2022-08-19T03:18:10;17.77;;;9.23;;
21843;SDS011;11084;52.482;9.108;2022-08-19T03:20:44;17.40;;;9.23;;
21843;SDS011;11084;52.482;9.108;2022-08-19T03:23:13;15.13;;;9.03;;
21843;SDS011;11084;52.482;9.108;2022-08-19T03:25:42;21.67;;;9.67;;
21843;SDS011;11084;52.482;9.108;2022-08-19T03:28:12;14.07;;;9.17;;
21843;SDS011;11084;52.482;9.108;2022-08-19T03:30:40;17.97;;;9.63;;
21843;SDS011;11084;52.482;9.108;2022-08-19T03:33:10;17.03;;;9.23;;
21843;SDS011;11084;52.482;9.108;2022-08-19T03:35:39;15.47;;;9.57;;
21843;SDS011;11084;52.482;9.108;2022-08-19T03:38:05;17.17;;;9.80;;
21843;SDS011;11084;52.482;9.108;2022-08-19T03:40:32;16.47;;;9.80;;
21843;SDS011;11084;52.482;9.108;2022-08-19T03:43:02;15.60;;;8.90;;
21843;SDS011;11084;52.482;9.108;2022-08-19T03:45:28;23.37;;;9.73;;
21843;SDS011;11084;52.482;9.108;2022-08-19T03:47:55;27.20;;;10.07;;
21843;SDS011;11084;52.482;9.108;2022-08-19T03:50:21;17.70;;;10.47;;
21843;SDS011;11084;52.482;9.108;2022-08-19T03:52:50;19.57;;;9.63;;
21843;SDS011;11084;52.482;9.108;2022-08-19T03:55:18;17.30;;;9.47;;
21843;SDS011;11084;52.482;9.108;2022-08-19T03:57:44;16.93;;;9.57;;
21843;SDS011;11084;52.482;9.108;2022-08-19T04:00:12;16.63;;;9.70;;
21843;SDS011;11084;52.482;9.108;2022-08-19T04:02:40;21.30;;;10.20;;
21843;SDS011;11084;52.482;9.108;2022-08-19T04:05:07;20.63;;;9.40;;
21843;SDS011;11084;52.482;9.108;2022-08-19T04:07:33;17.17;;;9.43;;
21843;SDS011;11084;52.482;9.108;2022-08-19T04:09:59;17.87;;;9.73;;
21843;SDS011;11084;52.482;9.108;2022-08-19T04:12:25;16.90;;;10.13;;
21843;SDS011;11084;52.482;9.108;2022-08-19T04:14:52;19.83;;;10.33;;
21843;SDS011;11084;52.482;9.108;2022-08-19T04:17:18;21.53;;;10.27;;
21843;SDS011;11084;52.482;9.108;2022-08-19T04:19:44;17.47;;;9.67;;
21843;SDS011;11084;52.482;9.108;2022-08-19T04:22:10;16.03;;;9.60;;
21843;SDS011;11084;52.482;9.108;2022-08-19T04:24:36;22.80;;;10.53;;
21843;SDS011;11084;52.482;9.108;2022-08-19T04:27:02;23.23;;;11.47;;
21843;SDS011;11084;52.482;9.108;2022-08-19T04:29:31;22.50;;;11.17;;
21843;SDS011;11084;52.482;9.108;2022-08-19T04:31:58;30.97;;;12.73;;
21843;SDS011;11084;52.482;9.108;2022-08-19T04:34:25;22.13;;;11.73;;
21843;SDS011;11084;52.482;9.108;2022-08-19T04:36:54;24.03;;;10.93;;
21843;SDS011;11084;52.482;9.108;2022-08-19T04:39:23;16.93;;;10.67;;
21843;SDS011;11084;52.482;9.108;2022-08-19T04:42:13;21.37;;;10.87;;
21843;SDS011;11084;52.482;9.108;2022-08-19T04:45:08;21.53;;;11.03;;
21843;SDS011;11084;52.482;9.108;2022-08-19T04:47:40;18.63;;;10.67;;
21843;SDS011;11084;52.482;9.108;2022-08-19T04:50:09;30.07;;;11.80;;
21843;SDS011;11084;52.482;9.108;2022-08-19T04:52:36;22.13;;;11.37;;
21843;SDS011;11084;52.482;9.108;2022-08-19T04:55:09;18.50;;;10.77;;
21843;SDS011;11084;52.482;9.108;2022-08-19T04:57:36;20.13;;;11.77;;
21843;SDS011;11084;52.482;9.108;2022-08-19T05:00:05;22.57;;;11.40;;
21843;SDS011;11084;52.482;9.108;2022-08-19T05:02:34;19.43;;;10.47;;
21843;SDS011;11084;52.482;9.108;2022-08-19T05:05:00;27.73;;;10.77;;
21843;SDS011;11084;52.482;9.108;2022-08-19T05:07:26;21.83;;;11.07;;
21843;SDS011;11084;52.482;9.108;2022-08-19T05:09:52;22.83;;;12.30;;
21843;SDS011;11084;52.482;9.108;2022-08-19T05:12:18;21.50;;;11.37;;
21843;SDS011;11084;52.482;9.108;2022-08-19T05:14:45;24.77;;;12.60;;
21843;SDS011;11084;52.482;9.108;2022-08-19T05:17:12;26.97;;;12.60;;
21843;SDS011;11084;52.482;9.108;2022-08-19T05:19:39;31.83;;;14.17;;
21843;SDS011;11084;52.482;9.108;2022-08-19T05:22:24;36.23;;;16.00;;
21843;SDS011;11084;52.482;9.108;2022-08-19T05:25:02;32.93;;;14.53;;
21843;SDS011;11084;52.482;9.108;2022-08-19T05:27:35;32.57;;;13.77;;
21843;SDS011;11084;52.482;9.108;2022-08-19T05:30:02;24.13;;;12.67;;
21843;SDS011;11084;52.482;9.108;2022-08-19T05:32:30;30.37;;;13.47;;
21843;SDS011;11084;52.482;9.108;2022-08-19T05:34:56;31.17;;;13.37;;
21843;SDS011;11084;52.482;9.108;2022-08-19T05:37:22;27.37;;;12.27;;
21843;SDS011;11084;52.482;9.108;2022-08-19T05:39:51;26.00;;;11.87;;
21843;SDS011;11084;52.482;9.108;2022-08-19T05:42:19;29.43;;;12.73;;
21843;SDS011;11084;52.482;9.108;2022-08-19T05:44:47;29.27;;;11.77;;
21843;SDS011;11084;52.482;9.108;2022-08-19T05:47:14;30.03;;;13.03;;
21843;SDS011;11084;52.482;9.108;2022-08-19T05:49:41;22.67;;;11.53;;
21843;SDS011;11084;52.482;9.108;2022-08-19T05:52:09;18.80;;;10.87;;
21843;SDS011;11084;52.482;9.108;2022-08-19T05:54:39;24.47;;;11.70;;
21843;SDS011;11084;52.482;9.108;2022-08-19T05:57:07;20.97;;;10.43;;
21843;SDS011;11084;52.482;9.108;2022-08-19T05:59:34;21.50;;;10.30;;
21843;SDS011;11084;52.482;9.108;2022-08-19T06:02:01;25.07;;;11.33;;
21843;SDS011;11084;52.482;9.108;2022-08-19T06:04:29;30.73;;;10.77;;
21843;SDS011;11084;52.482;9.108;2022-08-19T06:06:55;23.77;;;10.67;;
21843;SDS011;11084;52.482;9.108;2022-08-19T06:09:22;26.33;;;11.70;;
21843;SDS011;11084;52.482;9.108;2022-08-19T06:11:52;30.23;;;11.73;;
21843;SDS011;11084;52.482;9.108;2022-08-19T06:14:26;20.47;;;10.27;;
21843;SDS011;11084;52.482;9.108;2022-08-19T06:16:55;21.97;;;9.10;;
21843;SDS011;11084;52.482;9.108;2022-08-19T06:19:24;15.97;;;9.00;;
21843;SDS011;11084;52.482;9.108;2022-08-19T06:21:51;15.73;;;8.57;;
21843;SDS011;11084;52.482;9.108;2022-08-19T06:24:20;18.53;;;9.07;;
21843;SDS011;11084;52.482;9.108;2022-08-19T06:26:49;17.50;;;7.93;;
21843;SDS011;11084;52.482;9.108;2022-08-19T06:29:18;17.80;;;7.83;;
21843;SDS011;11084;52.482;9.108;2022-08-19T06:31:49;14.07;;;7.13;;
21843;SDS011;11084;52.482;9.108;2022-08-19T06:34:22;14.80;;;7.73;;
21843;SDS011;11084;52.482;9.108;2022-08-19T06:36:49;20.90;;;7.40;;
21843;SDS011;11084;52.482;9.108;2022-08-19T06:39:18;12.57;;;7.13;;
21843;SDS011;11084;52.482;9.108;2022-08-19T06:41:49;13.53;;;7.60;;
21843;SDS011;11084;52.482;9.108;2022-08-19T06:44:18;15.97;;;6.80;;
21843;SDS011;11084;52.482;9.108;2022-08-19T06:46:47;16.43;;;6.73;;
21843;SDS011;11084;52.482;9.108;2022-08-19T06:49:14;14.07;;;6.17;;
21843;SDS011;11084;52.482;9.108;2022-08-19T06:51:42;11.37;;;5.83;;
21843;SDS011;11084;52.482;9.108;2022-08-19T06:54:12;11.50;;;6.47;;
21843;SDS011;11084;52.482;9.108;2022-08-19T06:56:39;14.90;;;6.40;;
21843;SDS011;11084;52.482;9.108;2022-08-19T06:59:06;10.37;;;6.57;;
21843;SDS011;11084;52.482;9.108;2022-08-19T07:01:42;13.87;;;6.20;;
21843;SDS011;11084;52.482;9.108;2022-08-19T07:04:14;10.40;;;6.17;;
21843;SDS011;11084;52.482;9.108;2022-08-19T07:06:45;10.57;;;5.37;;
21843;SDS011;11084;52.482;9.108;2022-08-19T07:09:15;12.20;;;5.63;;
21843;SDS011;11084;52.482;9.108;2022-08-19T07:11:47;9.37;;;5.80;;
21843;SDS011;11084;52.482;9.108;2022-08-19T07:14:16;11.80;;;5.93;;
21843;SDS011;11084;52.482;9.108;2022-08-19T07:16:45;10.27;;;6.60;;
21843;SDS011;11084;52.482;9.108;2022-08-19T07:19:16;12.00;;;6.50;;
21843;SDS011;11084;52.482;9.108;2022-08-19T07:21:45;10.47;;;6.60;;
21843;SDS011;11084;52.482;9.108;2022-08-19T07:24:18;9.37;;;6.43;;
21843;SDS011;11084;52.482;9.108;2022-08-19T07:26:49;10.40;;;6.43;;
21843;SDS011;11084;52.482;9.108;2022-08-19T07:29:18;10.80;;;6.47;;
21843;SDS011;11084;52.482;9.108;2022-08-19T07:31:49;7.77;;;5.43;;
21843;SDS011;11084;52.482;9.108;2022-08-19T07:34:16;11.27;;;6.87;;
21843;SDS011;11084;52.482;9.108;2022-08-19T07:36:44;16.53;;;6.10;;
21843;SDS011;11084;52.482;9.108;2022-08-19T07:39:17;12.53;;;5.83;;
21843;SDS011;11084;52.482;9.108;2022-08-19T07:41:48;13.97;;;6.90;;
21843;SDS011;11084;52.482;9.108;2022-08-19T07:44:15;11.03;;;6.03;;
21843;SDS011;11084;52.482;9.108;2022-08-19T07:46:46;12.87;;;6.20;;
21843;SDS011;11084;52.482;9.108;2022-08-19T07:49:16;21.60;;;5.70;;
21843;SDS011;11084;52.482;9.108;2022-08-19T07:51:48;13.53;;;6.03;;
21843;SDS011;11084;52.482;9.108;2022-08-19T07:54:24;11.17;;;5.50;;
21843;SDS011;11084;52.482;9.108;2022-08-19T07:56:53;7.33;;;4.80;;
21843;SDS011;11084;52.482;9.108;2022-08-19T07:59:22;10.67;;;5.97;;
21843;SDS011;11084;52.482;9.108;2022-08-19T08:01:49;11.23;;;6.00;;
21843;SDS011;11084;52.482;9.108;2022-08-19T08:04:16;8.50;;;5.07;;
21843;SDS011;11084;52.482;9.108;2022-08-19T08:07:02;12.77;;;5.83;;
21843;SDS011;11084;52.482;9.108;2022-08-19T08:09:48;9.17;;;5.90;;
21843;SDS011;11084;52.482;9.108;2022-08-19T08:12:16;21.43;;;6.33;;
21843;SDS011;11084;52.482;9.108;2022-08-19T08:15:01;10.10;;;6.20;;
21843;SDS011;11084;52.482;9.108;2022-08-19T08:17:33;13.17;;;5.03;;
21843;SDS011;11084;52.482;9.108;2022-08-19T08:19:59;8.93;;;6.10;;
21843;SDS011;11084;52.482;9.108;2022-08-19T08:22:25;9.77;;;5.33;;
21843;SDS011;11084;52.482;9.108;2022-08-19T08:25:13;8.73;;;5.97;;
21843;SDS011;11084;52.482;9.108;2022-08-19T08:27:43;9.67;;;5.80;;
21843;SDS011;11084;52.482;9.108;2022-08-19T08:30:16;10.87;;;6.63;;
21843;SDS011;11084;52.482;9.108;2022-08-19T08:32:48;9.53;;;5.80;;
21843;SDS011;11084;52.482;9.108;2022-08-19T08:35:17;10.83;;;6.00;;
21843;SDS011;11084;52.482;9.108;2022-08-19T08:37:46;10.30;;;5.40;;
21843;SDS011;11084;52.482;9.108;2022-08-19T08:40:22;7.37;;;5.57;;
21843;SDS011;11084;52.482;9.108;2022-08-19T08:43:06;8.17;;;4.87;;
21843;SDS011;11084;52.482;9.108;2022-08-19T08:45:52;15.50;;;5.53;;
21843;SDS011;11084;52.482;9.108;2022-08-19T08:48:30;12.63;;;4.87;;
21843;SDS011;11084;52.482;9.108;2022-08-19T08:51:07;9.67;;;5.07;;
21843;SDS011;11084;52.482;9.108;2022-08-19T08:53:40;8.37;;;4.90;;
21843;SDS011;11084;52.482;9.108;2022-08-19T08:56:08;7.50;;;5.47;;
21843;SDS011;11084;52.482;9.108;2022-08-19T09:01:24;7.77;;;4.27;;
21843;SDS011;11084;52.482;9.108;2022-08-19T09:03:50;10.13;;;4.87;;
21843;SDS011;11084;52.482;9.108;2022-08-19T09:06:26;8.80;;;5.03;;
21843;SDS011;11084;52.482;9.108;2022-08-19T09:09:18;8.90;;;4.60;;
21843;SDS011;11084;52.482;9.108;2022-08-19T09:14:57;9.63;;;4.70;;
21843;SDS011;11084;52.482;9.108;2022-08-19T09:17:29;13.17;;;4.60;;
21843;SDS011;11084;52.482;9.108;2022-08-19T09:19:59;11.03;;;4.13;;
21843;SDS011;11084;52.482;9.108;2022-08-19T09:22:34;7.87;;;3.60;;
21843;SDS011;11084;52.482;9.108;2022-08-19T09:25:05;5.87;;;3.67;;
21843;SDS011;11084;52.482;9.108;2022-08-19T09:27:35;9.13;;;3.93;;
21843;SDS011;11084;52.482;9.108;2022-08-19T09:30:04;10.43;;;4.20;;
21843;SDS011;11084;52.482;9.108;2022-08-19T09:32:32;6.60;;;3.80;;
21843;SDS011;11084;52.482;9.108;2022-08-19T09:34:59;6.53;;;3.70;;
21843;SDS011;11084;52.482;9.108;2022-08-19T09:37:27;9.93;;;3.63;;
21843;SDS011;11084;52.482;9.108;2022-08-19T09:39:53;6.70;;;3.87;;
21843;SDS011;11084;52.482;9.108;2022-08-19T09:42:19;6.83;;;3.73;;
21843;SDS011;11084;52.482;9.108;2022-08-19T09:44:45;7.70;;;4.03;;
21843;SDS011;11084;52.482;9.108;2022-08-19T09:47:13;6.00;;;3.50;;
21843;SDS011;11084;52.482;9.108;2022-08-19T09:49:40;8.67;;;4.20;;
21843;SDS011;11084;52.482;9.108;2022-08-19T09:52:10;10.53;;;4.60;;
21843;SDS011;11084;52.482;9.108;2022-08-19T09:54:37;8.43;;;3.87;;
21843;SDS011;11084;52.482;9.108;2022-08-19T09:57:04;7.57;;;3.90;;
21843;SDS011;11084;52.482;9.108;2022-08-19T09:59:31;6.07;;;4.10;;
21843;SDS011;11084;52.482;9.108;2022-08-19T10:01:57;5.57;;;4.03;;
21843;SDS011;11084;52.482;9.108;2022-08-19T10:04:23;5.63;;;3.70;;
21843;SDS011;11084;52.482;9.108;2022-08-19T10:07:10;5.07;;;3.00;;
21843;SDS011;11084;52.482;9.108;2022-08-19T10:09:39;13.80;;;3.10;;
21843;SDS011;11084;52.482;9.108;2022-08-19T10:12:06;9.77;;;3.30;;
21843;SDS011;11084;52.482;9.108;2022-08-19T10:14:34;12.13;;;2.97;;
21843;SDS011;11084;52.482;9.108;2022-08-19T10:17:00;9.10;;;3.20;;
21843;SDS011;11084;52.482;9.108;2022-08-19T10:19:27;7.77;;;3.30;;
21843;SDS011;11084;52.482;9.108;2022-08-19T10:22:02;7.67;;;2.63;;
21843;SDS011;11084;52.482;9.108;2022-08-19T10:24:30;3.93;;;2.23;;
21843;SDS011;11084;52.482;9.108;2022-08-19T10:26:56;4.25;;;2.38;;
21843;SDS011;11084;52.482;9.108;2022-08-19T10:29:23;4.57;;;2.47;;
21843;SDS011;11084;52.482;9.108;2022-08-19T10:31:49;4.97;;;2.20;;
21843;SDS011;11084;52.482;9.108;2022-08-19T10:34:15;2.87;;;1.60;;
21843;SDS011;11084;52.482;9.108;2022-08-19T10:36:42;2.67;;;1.65;;
21843;SDS011;11084;52.482;9.108;2022-08-19T10:39:09;3.28;;;1.98;;
21843;SDS011;11084;52.482;9.108;2022-08-19T10:41:37;7.63;;;2.67;;
21843;SDS011;11084;52.482;9.108;2022-08-19T10:44:09;3.65;;;1.70;;
21843;SDS011;11084;52.482;9.108;2022-08-19T10:46:41;3.67;;;1.35;;
21843;SDS011;11084;52.482;9.108;2022-08-19T10:49:10;1.93;;;1.27;;
21843;SDS011;11084;52.482;9.108;2022-08-19T10:51:37;2.55;;;1.45;;
21843;SDS011;11084;52.482;9.108;2022-08-19T10:54:23;6.15;;;1.30;;
21843;SDS011;11084;52.482;9.108;2022-08-19T10:57:09;2.78;;;1.38;;
21843;SDS011;11084;52.482;9.108;2022-08-19T10:59:35;0.82;;;0.82;;
21843;SDS011;11084;52.482;9.108;2022-08-19T11:02:03;1.98;;;1.55;;
21843;SDS011;11084;52.482;9.108;2022-08-19T11:04:32;1.02;;;0.93;;
21843;SDS011;11084;52.482;9.108;2022-08-19T11:06:58;2.50;;;1.10;;
21843;SDS011;11084;52.482;9.108;2022-08-19T11:09:25;2.55;;;1.48;;
21843;SDS011;11084;52.482;9.108;2022-08-19T11:11:53;3.08;;;1.40;;
21843;SDS011;11084;52.482;9.108;2022-08-19T11:14:20;5.82;;;1.20;;
21843;SDS011;11084;52.482;9.108;2022-08-19T11:16:47;2.65;;;1.00;;
21843;SDS011;11084;52.482;9.108;2022-08-19T11:19:14;1.23;;;0.60;;
21843;SDS011;11084;52.482;9.108;2022-08-19T11:21:45;6.35;;;0.70;;
21843;SDS011;11084;52.482;9.108;2022-08-19T11:24:15;1.05;;;0.77;;
21843;SDS011;11084;52.482;9.108;2022-08-19T11:26:45;0.90;;;0.70;;
21843;SDS011;11084;52.482;9.108;2022-08-19T11:29:18;1.25;;;0.90;;
21843;SDS011;11084;52.482;9.108;2022-08-19T11:31:46;1.70;;;0.80;;
21843;SDS011;11084;52.482;9.108;2022-08-19T11:34:16;1.90;;;0.80;;
21843;SDS011;11084;52.482;9.108;2022-08-19T11:36:46;0.60;;;0.60;;
21843;SDS011;11084;52.482;9.108;2022-08-19T11:39:14;1.92;;;0.55;;
21843;SDS011;11084;52.482;9.108;2022-08-19T11:41:42;0.95;;;0.50;;
21843;SDS011;11084;52.482;9.108;2022-08-19T11:44:08;1.60;;;0.70;;
21843;SDS011;11084;52.482;9.108;2022-08-19T11:46:36;1.58;;;1.08;;
21843;SDS011;11084;52.482;9.108;2022-08-19T11:49:04;5.35;;;0.73;;
21843;SDS011;11084;52.482;9.108;2022-08-19T11:51:34;4.88;;;0.80;;
21843;SDS011;11084;52.482;9.108;2022-08-19T11:54:01;0.80;;;0.70;;
21843;SDS011;11084;52.482;9.108;2022-08-19T11:56:30;2.20;;;0.90;;
21843;SDS011;11084;52.482;9.108;2022-08-19T11:58:56;0.80;;;0.60;;
21843;SDS011;11084;52.482;9.108;2022-08-19T12:01:23;0.60;;;0.60;;
21843;SDS011;11084;52.482;9.108;2022-08-19T12:03:52;0.50;;;0.50;;
21843;SDS011;11084;52.482;9.108;2022-08-19T12:06:21;1.08;;;0.70;;
21843;SDS011;11084;52.482;9.108;2022-08-19T12:08:54;2.20;;;0.95;;
21843;SDS011;11084;52.482;9.108;2022-08-19T12:11:30;2.13;;;0.80;;
21843;SDS011;11084;52.482;9.108;2022-08-19T12:13:57;2.45;;;0.73;;
21843;SDS011;11084;52.482;9.108;2022-08-19T12:16:24;5.97;;;0.90;;
21843;SDS011;11084;52.482;9.108;2022-08-19T12:18:54;1.00;;;0.70;;
21843;SDS011;11084;52.482;9.108;2022-08-19T12:21:22;3.30;;;0.57;;
21843;SDS011;11084;52.482;9.108;2022-08-19T12:23:54;6.07;;;0.70;;
21843;SDS011;11084;52.482;9.108;2022-08-19T12:26:22;0.57;;;0.50;;
21843;SDS011;11084;52.482;9.108;2022-08-19T12:28:50;3.75;;;0.60;;
21843;SDS011;11084;52.482;9.108;2022-08-19T12:31:16;0.85;;;0.60;;
21843;SDS011;11084;52.482;9.108;2022-08-19T12:33:45;1.25;;;0.50;;
21843;SDS011;11084;52.482;9.108;2022-08-19T12:36:15;0.50;;;0.50;;
21843;SDS011;11084;52.482;9.108;2022-08-19T12:38:43;0.52;;;0.52;;
21843;SDS011;11084;52.482;9.108;2022-08-19T12:41:12;2.60;;;0.60;;
21843;SDS011;11084;52.482;9.108;2022-08-19T12:43:42;2.35;;;0.90;;
21843;SDS011;11084;52.482;9.108;2022-08-19T12:46:09;6.68;;;0.77;;
21843;SDS011;11084;52.482;9.108;2022-08-19T12:48:37;2.65;;;0.70;;
21843;SDS011;11084;52.482;9.108;2022-08-19T12:51:08;0.88;;;0.52;;
21843;SDS011;11084;52.482;9.108;2022-08-19T12:53:38;0.90;;;0.68;;
21843;SDS011;11084;52.482;9.108;2022-08-19T12:56:04;1.08;;;0.50;;
21843;SDS011;11084;52.482;9.108;2022-08-19T12:58:32;0.45;;;0.45;;
21843;SDS011;11084;52.482;9.108;2022-08-19T13:00:59;1.58;;;0.50;;
21843;SDS011;11084;52.482;9.108;2022-08-19T13:03:36;0.57;;;0.52;;
21843;SDS011;11084;52.482;9.108;2022-08-19T13:06:03;3.20;;;0.60;;
21843;SDS011;11084;52.482;9.108;2022-08-19T13:08:29;0.80;;;0.60;;
21843;SDS011;11084;52.482;9.108;2022-08-19T13:10:55;0.85;;;0.40;;
21843;SDS011;11084;52.482;9.108;2022-08-19T13:13:23;0.98;;;0.65;;
21843;SDS011;11084;52.482;9.108;2022-08-19T13:15:51;1.10;;;0.60;;
21843;SDS011;11084;52.482;9.108;2022-08-19T13:18:17;0.85;;;0.50;;
21843;SDS011;11084;52.482;9.108;2022-08-19T13:20:43;0.60;;;0.60;;
21843;SDS011;11084;52.482;9.108;2022-08-19T13:23:09;4.63;;;0.57;;
21843;SDS011;11084;52.482;9.108;2022-08-19T13:25:35;1.10;;;0.47;;
21843;SDS011;11084;52.482;9.108;2022-08-19T13:28:02;0.60;;;0.60;;
21843;SDS011;11084;52.482;9.108;2022-08-19T13:30:32;0.77;;;0.50;;
21843;SDS011;11084;52.482;9.108;2022-08-19T13:33:17;2.13;;;0.80;;
21843;SDS011;11084;52.482;9.108;2022-08-19T13:35:45;0.73;;;0.63;;
21843;SDS011;11084;52.482;9.108;2022-08-19T13:38:11;3.58;;;0.80;;
21843;SDS011;11084;52.482;9.108;2022-08-19T13:40:44;3.33;;;0.70;;
21843;SDS011;11084;52.482;9.108;2022-08-19T13:43:11;3.45;;;0.60;;
21843;SDS011;11084;52.482;9.108;2022-08-19T13:45:37;2.35;;;0.60;;
21843;SDS011;11084;52.482;9.108;2022-08-19T13:48:04;1.27;;;0.80;;
21843;SDS011;11084;52.482;9.108;2022-08-19T13:50:32;0.60;;;0.60;;
21843;SDS011;11084;52.482;9.108;2022-08-19T13:53:03;1.45;;;0.70;;
21843;SDS011;11084;52.482;9.108;2022-08-19T13:55:30;1.95;;;0.80;;
21843;SDS011;11084;52.482;9.108;2022-08-19T13:57:57;1.23;;;0.88;;
21843;SDS011;11084;52.482;9.108;2022-08-19T14:00:28;1.30;;;0.90;;
21843;SDS011;11084;52.482;9.108;2022-08-19T14:03:01;2.05;;;0.60;;
21843;SDS011;11084;52.482;9.108;2022-08-19T14:05:28;2.50;;;0.82;;
21843;SDS011;11084;52.482;9.108;2022-08-19T14:07:56;1.67;;;0.98;;
21843;SDS011;11084;52.482;9.108;2022-08-19T14:10:23;3.03;;;0.77;;
21843;SDS011;11084;52.482;9.108;2022-08-19T14:12:55;1.10;;;0.70;;
21843;SDS011;11084;52.482;9.108;2022-08-19T14:15:23;0.60;;;0.55;;
21843;SDS011;11084;52.482;9.108;2022-08-19T14:17:50;2.20;;;0.77;;
21843;SDS011;11084;52.482;9.108;2022-08-19T14:20:17;2.03;;;0.52;;
21843;SDS011;11084;52.482;9.108;2022-08-19T14:22:44;1.50;;;0.80;;
21843;SDS011;11084;52.482;9.108;2022-08-19T14:25:13;1.23;;;0.85;;
21843;SDS011;11084;52.482;9.108;2022-08-19T14:27:46;1.85;;;1.00;;
21843;SDS011;11084;52.482;9.108;2022-08-19T14:30:14;3.55;;;0.70;;
21843;SDS011;11084;52.482;9.108;2022-08-19T14:32:45;3.78;;;0.90;;
21843;SDS011;11084;52.482;9.108;2022-08-19T14:35:12;3.88;;;0.90;;
21843;SDS011;11084;52.482;9.108;2022-08-19T14:37:40;1.00;;;0.80;;
21843;SDS011;11084;52.482;9.108;2022-08-19T14:40:08;2.47;;;0.73;;
21843;SDS011;11084;52.482;9.108;2022-08-19T14:42:35;0.88;;;0.88;;
21843;SDS011;11084;52.482;9.108;2022-08-19T14:45:01;1.48;;;0.90;;
21843;SDS011;11084;52.482;9.108;2022-08-19T14:47:30;7.03;;;0.90;;
21843;SDS011;11084;52.482;9.108;2022-08-19T14:49:56;2.10;;;0.70;;
21843;SDS011;11084;52.482;9.108;2022-08-19T14:52:22;2.42;;;0.80;;
21843;SDS011;11084;52.482;9.108;2022-08-19T14:54:48;2.20;;;0.98;;
21843;SDS011;11084;52.482;9.108;2022-08-19T14:57:14;1.50;;;1.08;;
21843;SDS011;11084;52.482;9.108;2022-08-19T14:59:41;0.80;;;0.80;;
21843;SDS011;11084;52.482;9.108;2022-08-19T15:02:08;0.82;;;0.82;;